sensor_id;sensor_type;location;lat;lon;timestamp;temperature;humidity
18218;DHT22;9234;49.344;11.120;2022-12-10T00:01:48;0.60;99.90
18218;DHT22;9234;49.344;11.120;2022-12-10T00:04:19;0.70;99.90
18218;DHT22;9234;49.344;11.120;2022-12-10T00:06:48;0.60;99.90
18218;DHT22;9234;49.344;11.120;2022-12-10T00:09:18;0.60;99.90
18218;DHT22;9234;49.344;11.120;2022-12-10T00:11:48;0.60;99.90
18218;DHT22;9234;49.344;11.120;2022-12-10T00:14:17;0.60;99.90
18218;DHT22;9234;49.344;11.120;2022-12-10T00:16:45;0.60;99.90
18218;DHT22;9234;49.344;11.120;2022-12-10T00:19:13;0.60;99.90
18218;DHT22;9234;49.344;11.120;2022-12-10T00:21:44;0.50;99.90
18218;DHT22;9234;49.344;11.120;2022-12-10T00:24:13;0.50;99.90
18218;DHT22;9234;49.344;11.120;2022-12-10T00:26:41;0.50;99.90
18218;DHT22;9234;49.344;11.120;2022-12-10T00:29:11;0.50;99.90
18218;DHT22;9234;49.344;11.120;2022-12-10T00:31:40;0.50;99.90
18218;DHT22;9234;49.344;11.120;2022-12-10T00:34:09;0.40;99.90
18218;DHT22;9234;49.344;11.120;2022-12-10T00:36:41;0.40;99.90
18218;DHT22;9234;49.344;11.120;2022-12-10T00:39:14;0.40;99.90
18218;DHT22;9234;49.344;11.120;2022-12-10T00:41:43;0.40;99.90
18218;DHT22;9234;49.344;11.120;2022-12-10T00:44:12;0.40;99.90
18218;DHT22;9234;49.344;11.120;2022-12-10T00:46:41;0.40;99.90
18218;DHT22;9234;49.344;11.120;2022-12-10T00:49:10;0.40;99.90
18218;DHT22;9234;49.344;11.120;2022-12-10T00:51:38;0.40;99.90
18218;DHT22;9234;49.344;11.120;2022-12-10T00:54:08;0.40;99.90
18218;DHT22;9234;49.344;11.120;2022-12-10T00:56:37;0.40;99.90
18218;DHT22;9234;49.344;11.120;2022-12-10T00:59:05;0.40;99.90
18218;DHT22;9234;49.344;11.120;2022-12-10T01:01:36;0.40;99.90
18218;DHT22;9234;49.344;11.120;2022-12-10T01:04:07;0.40;99.90
18218;DHT22;9234;49.344;11.120;2022-12-10T01:06:41;0.40;99.90
18218;DHT22;9234;49.344;11.120;2022-12-10T01:09:15;0.40;99.90
18218;DHT22;9234;49.344;11.120;2022-12-10T01:11:46;0.40;99.90
18218;DHT22;9234;49.344;11.120;2022-12-10T01:14:18;0.40;99.90
18218;DHT22;9234;49.344;11.120;2022-12-10T01:16:48;0.40;99.90
18218;DHT22;9234;49.344;11.120;2022-12-10T01:19:17;0.40;99.90
18218;DHT22;9234;49.344;11.120;2022-12-10T01:21:45;0.40;99.90
18218;DHT22;9234;49.344;11.120;2022-12-10T01:24:18;0.40;99.90
18218;DHT22;9234;49.344;11.120;2022-12-10T01:26:46;0.40;99.90
18218;DHT22;9234;49.344;11.120;2022-12-10T01:29:15;0.40;99.90
18218;DHT22;9234;49.344;11.120;2022-12-10T01:31:44;0.50;99.90
18218;DHT22;9234;49.344;11.120;2022-12-10T01:34:14;0.50;99.90
18218;DHT22;9234;49.344;11.120;2022-12-10T01:36:44;0.50;99.90
18218;DHT22;9234;49.344;11.120;2022-12-10T01:39:18;0.50;99.90
18218;DHT22;9234;49.344;11.120;2022-12-10T01:41:50;0.50;99.90
18218;DHT22;9234;49.344;11.120;2022-12-10T01:47:35;0.50;99.90
18218;DHT22;9234;49.344;11.120;2022-12-10T01:50:04;0.50;99.90
18218;DHT22;9234;49.344;11.120;2022-12-10T01:52:37;0.50;99.90
18218;DHT22;9234;49.344;11.120;2022-12-10T01:55:46;0.50;99.90
18218;DHT22;9234;49.344;11.120;2022-12-10T01:58:17;0.50;99.90
18218;DHT22;9234;49.344;11.120;2022-12-10T02:01:04;0.50;99.90
18218;DHT22;9234;49.344;11.120;2022-12-10T02:03:44;0.50;99.90
18218;DHT22;9234;49.344;11.120;2022-12-10T02:06:30;0.40;99.90
18218;DHT22;9234;49.344;11.120;2022-12-10T02:09:12;0.40;99.90
18218;DHT22;9234;49.344;11.120;2022-12-10T02:11:58;0.40;99.90
18218;DHT22;9234;49.344;11.120;2022-12-10T02:14:38;0.40;99.90
18218;DHT22;9234;49.344;11.120;2022-12-10T02:17:14;0.40;99.90
18218;DHT22;9234;49.344;11.120;2022-12-10T02:19:58;0.40;99.90
18218;DHT22;9234;49.344;11.120;2022-12-10T02:22:35;0.50;99.90
18218;DHT22;9234;49.344;11.120;2022-12-10T02:25:08;0.40;99.90
18218;DHT22;9234;49.344;11.120;2022-12-10T02:27:46;0.40;99.90
18218;DHT22;9234;49.344;11.120;2022-12-10T02:30:21;0.40;99.90
18218;DHT22;9234;49.344;11.120;2022-12-10T02:32:50;0.30;99.90
18218;DHT22;9234;49.344;11.120;2022-12-10T02:35:21;0.30;99.90
18218;DHT22;9234;49.344;11.120;2022-12-10T02:37:55;0.30;99.90
18218;DHT22;9234;49.344;11.120;2022-12-10T02:40:31;0.30;99.90
18218;DHT22;9234;49.344;11.120;2022-12-10T02:43:02;0.40;99.90
18218;DHT22;9234;49.344;11.120;2022-12-10T02:45:34;0.30;99.90
18218;DHT22;9234;49.344;11.120;2022-12-10T02:48:05;0.30;99.90
18218;DHT22;9234;49.344;11.120;2022-12-10T02:50:39;0.30;99.90
18218;DHT22;9234;49.344;11.120;2022-12-10T02:53:07;0.30;99.90
18218;DHT22;9234;49.344;11.120;2022-12-10T02:55:47;0.30;99.90
18218;DHT22;9234;49.344;11.120;2022-12-10T02:58:29;0.30;99.90
18218;DHT22;9234;49.344;11.120;2022-12-10T03:01:15;0.30;99.90
18218;DHT22;9234;49.344;11.120;2022-12-10T03:03:53;0.30;99.90
18218;DHT22;9234;49.344;11.120;2022-12-10T03:06:30;0.30;99.90
18218;DHT22;9234;49.344;11.120;2022-12-10T03:09:06;0.30;99.90
18218;DHT22;9234;49.344;11.120;2022-12-10T03:11:38;0.30;99.90
18218;DHT22;9234;49.344;11.120;2022-12-10T03:14:13;0.30;99.90
18218;DHT22;9234;49.344;11.120;2022-12-10T03:16:50;0.30;99.90
18218;DHT22;9234;49.344;11.120;2022-12-10T03:19:24;0.30;99.90
18218;DHT22;9234;49.344;11.120;2022-12-10T03:21:56;0.20;99.90
18218;DHT22;9234;49.344;11.120;2022-12-10T03:24:27;0.30;99.90
18218;DHT22;9234;49.344;11.120;2022-12-10T03:26:56;0.30;99.90
18218;DHT22;9234;49.344;11.120;2022-12-10T03:29:28;0.30;99.90
18218;DHT22;9234;49.344;11.120;2022-12-10T03:32:02;0.30;99.90
18218;DHT22;9234;49.344;11.120;2022-12-10T03:34:32;0.30;99.90
18218;DHT22;9234;49.344;11.120;2022-12-10T03:37:01;0.30;99.90
18218;DHT22;9234;49.344;11.120;2022-12-10T03:39:31;0.30;99.90
18218;DHT22;9234;49.344;11.120;2022-12-10T03:42:00;0.30;99.90
18218;DHT22;9234;49.344;11.120;2022-12-10T03:44:29;0.30;99.90
18218;DHT22;9234;49.344;11.120;2022-12-10T03:46:58;0.30;99.90
18218;DHT22;9234;49.344;11.120;2022-12-10T03:49:28;0.30;99.90
18218;DHT22;9234;49.344;11.120;2022-12-10T03:51:56;0.30;99.90
18218;DHT22;9234;49.344;11.120;2022-12-10T03:54:24;0.30;99.90
18218;DHT22;9234;49.344;11.120;2022-12-10T03:56:53;0.30;99.90
18218;DHT22;9234;49.344;11.120;2022-12-10T03:59:21;0.30;99.90
18218;DHT22;9234;49.344;11.120;2022-12-10T04:01:49;0.30;99.90
18218;DHT22;9234;49.344;11.120;2022-12-10T04:04:17;0.30;99.90
18218;DHT22;9234;49.344;11.120;2022-12-10T04:06:47;0.30;99.90
18218;DHT22;9234;49.344;11.120;2022-12-10T04:09:15;0.30;99.90
18218;DHT22;9234;49.344;11.120;2022-12-10T04:11:44;0.40;99.90
18218;DHT22;9234;49.344;11.120;2022-12-10T04:14:13;0.40;99.90
18218;DHT22;9234;49.344;11.120;2022-12-10T04:17:00;0.40;99.90
18218;DHT22;9234;49.344;11.120;2022-12-10T04:19:28;0.40;99.90
18218;DHT22;9234;49.344;11.120;2022-12-10T04:21:58;0.40;99.90
18218;DHT22;9234;49.344;11.120;2022-12-10T04:24:44;0.40;99.90
18218;DHT22;9234;49.344;11.120;2022-12-10T04:27:31;0.40;99.90
18218;DHT22;9234;49.344;11.120;2022-12-10T04:30:04;0.40;99.90
18218;DHT22;9234;49.344;11.120;2022-12-10T04:32:34;0.30;99.90
18218;DHT22;9234;49.344;11.120;2022-12-10T04:35:03;0.30;99.90
18218;DHT22;9234;49.344;11.120;2022-12-10T04:37:33;0.30;99.90
18218;DHT22;9234;49.344;11.120;2022-12-10T04:40:02;0.30;99.90
18218;DHT22;9234;49.344;11.120;2022-12-10T04:42:31;0.30;99.90
18218;DHT22;9234;49.344;11.120;2022-12-10T04:45:00;0.30;99.90
18218;DHT22;9234;49.344;11.120;2022-12-10T04:47:28;0.30;99.90
18218;DHT22;9234;49.344;11.120;2022-12-10T04:49:56;0.30;99.90
18218;DHT22;9234;49.344;11.120;2022-12-10T04:52:24;0.20;99.90
18218;DHT22;9234;49.344;11.120;2022-12-10T04:54:53;0.20;99.90
18218;DHT22;9234;49.344;11.120;2022-12-10T04:57:21;0.30;99.90
18218;DHT22;9234;49.344;11.120;2022-12-10T04:59:49;0.20;99.90
18218;DHT22;9234;49.344;11.120;2022-12-10T05:02:18;0.20;99.90
18218;DHT22;9234;49.344;11.120;2022-12-10T05:04:48;0.20;99.90
18218;DHT22;9234;49.344;11.120;2022-12-10T05:07:16;0.20;99.90
18218;DHT22;9234;49.344;11.120;2022-12-10T05:09:44;0.20;99.90
18218;DHT22;9234;49.344;11.120;2022-12-10T05:12:13;0.20;99.90
18218;DHT22;9234;49.344;11.120;2022-12-10T05:14:41;0.20;99.90
18218;DHT22;9234;49.344;11.120;2022-12-10T05:17:10;0.20;99.90
18218;DHT22;9234;49.344;11.120;2022-12-10T05:19:38;0.10;99.90
18218;DHT22;9234;49.344;11.120;2022-12-10T05:22:07;0.10;99.90
18218;DHT22;9234;49.344;11.120;2022-12-10T05:24:53;0.10;99.90
18218;DHT22;9234;49.344;11.120;2022-12-10T05:27:22;0.10;99.90
18218;DHT22;9234;49.344;11.120;2022-12-10T05:29:50;0.10;99.90
18218;DHT22;9234;49.344;11.120;2022-12-10T05:32:19;0.10;99.90
18218;DHT22;9234;49.344;11.120;2022-12-10T05:34:47;0.00;99.90
18218;DHT22;9234;49.344;11.120;2022-12-10T05:37:15;0.10;99.90
18218;DHT22;9234;49.344;11.120;2022-12-10T05:39:43;0.10;99.90
18218;DHT22;9234;49.344;11.120;2022-12-10T05:42:11;0.10;99.90
18218;DHT22;9234;49.344;11.120;2022-12-10T05:44:41;0.10;99.90
18218;DHT22;9234;49.344;11.120;2022-12-10T05:47:09;0.10;99.90
18218;DHT22;9234;49.344;11.120;2022-12-10T05:49:37;0.10;99.90
18218;DHT22;9234;49.344;11.120;2022-12-10T05:52:05;0.10;99.90
18218;DHT22;9234;49.344;11.120;2022-12-10T05:54:36;0.10;99.90
18218;DHT22;9234;49.344;11.120;2022-12-10T05:57:04;0.10;99.90
18218;DHT22;9234;49.344;11.120;2022-12-10T05:59:33;0.10;99.90
18218;DHT22;9234;49.344;11.120;2022-12-10T06:02:03;0.10;99.90
18218;DHT22;9234;49.344;11.120;2022-12-10T06:04:31;0.10;99.90
18218;DHT22;9234;49.344;11.120;2022-12-10T06:06:59;0.20;99.90
18218;DHT22;9234;49.344;11.120;2022-12-10T06:09:33;0.10;99.90
18218;DHT22;9234;49.344;11.120;2022-12-10T06:12:01;0.10;99.90
18218;DHT22;9234;49.344;11.120;2022-12-10T06:14:30;0.10;99.90
18218;DHT22;9234;49.344;11.120;2022-12-10T06:16:58;0.10;99.90
18218;DHT22;9234;49.344;11.120;2022-12-10T06:19:28;0.10;99.90
18218;DHT22;9234;49.344;11.120;2022-12-10T06:21:56;0.10;99.90
18218;DHT22;9234;49.344;11.120;2022-12-10T06:24:24;0.10;99.90
18218;DHT22;9234;49.344;11.120;2022-12-10T06:26:52;0.10;99.90
18218;DHT22;9234;49.344;11.120;2022-12-10T06:29:22;0.10;99.90
18218;DHT22;9234;49.344;11.120;2022-12-10T06:31:50;0.20;99.90
18218;DHT22;9234;49.344;11.120;2022-12-10T06:34:18;0.10;99.90
18218;DHT22;9234;49.344;11.120;2022-12-10T06:36:48;0.10;99.90
18218;DHT22;9234;49.344;11.120;2022-12-10T06:39:16;0.10;99.90
18218;DHT22;9234;49.344;11.120;2022-12-10T06:41:44;0.00;99.90
18218;DHT22;9234;49.344;11.120;2022-12-10T06:44:12;0.00;99.90
18218;DHT22;9234;49.344;11.120;2022-12-10T06:46:41;-0.10;99.90
18218;DHT22;9234;49.344;11.120;2022-12-10T06:49:09;-0.10;99.90
18218;DHT22;9234;49.344;11.120;2022-12-10T06:51:37;-0.10;99.90
18218;DHT22;9234;49.344;11.120;2022-12-10T06:54:07;-0.20;99.90
18218;DHT22;9234;49.344;11.120;2022-12-10T06:56:35;-0.20;99.90
18218;DHT22;9234;49.344;11.120;2022-12-10T06:59:04;-0.20;99.90
18218;DHT22;9234;49.344;11.120;2022-12-10T07:01:33;-0.20;99.90
18218;DHT22;9234;49.344;11.120;2022-12-10T07:04:01;-0.20;99.90
18218;DHT22;9234;49.344;11.120;2022-12-10T07:06:31;-0.30;99.90
18218;DHT22;9234;49.344;11.120;2022-12-10T07:08:59;-0.20;99.90
18218;DHT22;9234;49.344;11.120;2022-12-10T07:11:29;-0.20;99.90
18218;DHT22;9234;49.344;11.120;2022-12-10T07:13:58;-0.30;99.90
18218;DHT22;9234;49.344;11.120;2022-12-10T07:16:28;-0.20;99.90
18218;DHT22;9234;49.344;11.120;2022-12-10T07:19:00;-0.20;99.90
18218;DHT22;9234;49.344;11.120;2022-12-10T07:21:30;-0.20;99.90
18218;DHT22;9234;49.344;11.120;2022-12-10T07:24:01;-0.20;99.90
18218;DHT22;9234;49.344;11.120;2022-12-10T07:26:34;-0.20;99.90
18218;DHT22;9234;49.344;11.120;2022-12-10T07:29:05;-0.10;99.90
18218;DHT22;9234;49.344;11.120;2022-12-10T07:31:35;-0.10;99.90
18218;DHT22;9234;49.344;11.120;2022-12-10T07:34:04;-0.10;99.90
18218;DHT22;9234;49.344;11.120;2022-12-10T07:36:32;0.00;99.90
18218;DHT22;9234;49.344;11.120;2022-12-10T07:39:00;0.00;99.90
18218;DHT22;9234;49.344;11.120;2022-12-10T07:41:28;0.00;99.90
18218;DHT22;9234;49.344;11.120;2022-12-10T07:43:59;0.00;99.90
18218;DHT22;9234;49.344;11.120;2022-12-10T07:46:29;0.10;99.90
18218;DHT22;9234;49.344;11.120;2022-12-10T07:48:59;0.10;99.90
18218;DHT22;9234;49.344;11.120;2022-12-10T07:51:29;0.10;99.90
18218;DHT22;9234;49.344;11.120;2022-12-10T07:53:58;0.20;99.90
18218;DHT22;9234;49.344;11.120;2022-12-10T07:56:26;0.20;99.90
18218;DHT22;9234;49.344;11.120;2022-12-10T07:58:54;0.20;99.90
18218;DHT22;9234;49.344;11.120;2022-12-10T08:01:25;0.20;99.90
18218;DHT22;9234;49.344;11.120;2022-12-10T08:03:55;0.20;99.90
18218;DHT22;9234;49.344;11.120;2022-12-10T08:06:25;0.20;99.90
18218;DHT22;9234;49.344;11.120;2022-12-10T08:08:55;0.20;99.90
18218;DHT22;9234;49.344;11.120;2022-12-10T08:11:26;0.20;99.90
18218;DHT22;9234;49.344;11.120;2022-12-10T08:13:55;0.20;99.90
18218;DHT22;9234;49.344;11.120;2022-12-10T08:16:26;0.30;99.90
18218;DHT22;9234;49.344;11.120;2022-12-10T08:18:58;0.30;99.90
18218;DHT22;9234;49.344;11.120;2022-12-10T08:21:28;0.30;99.90
18218;DHT22;9234;49.344;11.120;2022-12-10T08:23:58;0.30;99.90
18218;DHT22;9234;49.344;11.120;2022-12-10T08:26:28;0.40;99.90
18218;DHT22;9234;49.344;11.120;2022-12-10T08:28:57;0.50;99.90
18218;DHT22;9234;49.344;11.120;2022-12-10T08:31:28;0.50;99.90
18218;DHT22;9234;49.344;11.120;2022-12-10T08:34:04;0.60;99.90
18218;DHT22;9234;49.344;11.120;2022-12-10T08:36:32;0.60;99.90
18218;DHT22;9234;49.344;11.120;2022-12-10T08:39:01;0.60;99.90
18218;DHT22;9234;49.344;11.120;2022-12-10T08:41:29;0.60;99.90
18218;DHT22;9234;49.344;11.120;2022-12-10T08:43:57;0.60;99.90
18218;DHT22;9234;49.344;11.120;2022-12-10T08:46:27;0.70;99.90
18218;DHT22;9234;49.344;11.120;2022-12-10T08:48:57;0.70;99.90
18218;DHT22;9234;49.344;11.120;2022-12-10T08:51:25;0.70;99.90
18218;DHT22;9234;49.344;11.120;2022-12-10T08:53:54;0.80;99.90
18218;DHT22;9234;49.344;11.120;2022-12-10T08:56:23;0.80;99.90
18218;DHT22;9234;49.344;11.120;2022-12-10T08:58:51;0.90;99.90
18218;DHT22;9234;49.344;11.120;2022-12-10T09:01:20;0.90;99.90
18218;DHT22;9234;49.344;11.120;2022-12-10T09:03:49;0.90;99.90
18218;DHT22;9234;49.344;11.120;2022-12-10T09:06:19;1.00;99.90
18218;DHT22;9234;49.344;11.120;2022-12-10T09:08:51;1.10;99.90
18218;DHT22;9234;49.344;11.120;2022-12-10T09:11:22;1.10;99.90
18218;DHT22;9234;49.344;11.120;2022-12-10T09:13:52;1.10;99.90
18218;DHT22;9234;49.344;11.120;2022-12-10T09:16:21;1.20;99.90
18218;DHT22;9234;49.344;11.120;2022-12-10T09:18:56;1.20;99.90
18218;DHT22;9234;49.344;11.120;2022-12-10T09:21:25;1.30;99.90
18218;DHT22;9234;49.344;11.120;2022-12-10T09:23:53;1.30;99.90
18218;DHT22;9234;49.344;11.120;2022-12-10T09:26:21;1.40;99.90
18218;DHT22;9234;49.344;11.120;2022-12-10T09:28:50;1.40;99.90
18218;DHT22;9234;49.344;11.120;2022-12-10T09:31:19;1.50;99.90
18218;DHT22;9234;49.344;11.120;2022-12-10T09:33:50;1.50;99.90
18218;DHT22;9234;49.344;11.120;2022-12-10T09:36:21;1.50;99.90
18218;DHT22;9234;49.344;11.120;2022-12-10T09:38:57;1.50;99.90
18218;DHT22;9234;49.344;11.120;2022-12-10T09:41:39;1.50;99.90
18218;DHT22;9234;49.344;11.120;2022-12-10T09:44:35;1.50;99.90
18218;DHT22;9234;49.344;11.120;2022-12-10T09:47:11;1.60;99.90
18218;DHT22;9234;49.344;11.120;2022-12-10T09:49:51;1.60;99.90
18218;DHT22;9234;49.344;11.120;2022-12-10T09:52:34;1.60;99.90
18218;DHT22;9234;49.344;11.120;2022-12-10T09:55:10;1.60;99.90
18218;DHT22;9234;49.344;11.120;2022-12-10T09:57:44;1.60;99.90
18218;DHT22;9234;49.344;11.120;2022-12-10T10:00:20;1.70;99.90
18218;DHT22;9234;49.344;11.120;2022-12-10T10:02:51;1.80;99.90
18218;DHT22;9234;49.344;11.120;2022-12-10T10:05:25;1.90;99.90
18218;DHT22;9234;49.344;11.120;2022-12-10T10:07:59;1.90;99.90
18218;DHT22;9234;49.344;11.120;2022-12-10T10:10:32;1.90;99.90
18218;DHT22;9234;49.344;11.120;2022-12-10T10:13:14;2.00;99.90
18218;DHT22;9234;49.344;11.120;2022-12-10T10:15:46;2.00;99.90
18218;DHT22;9234;49.344;11.120;2022-12-10T10:18:20;2.00;99.90
18218;DHT22;9234;49.344;11.120;2022-12-10T10:20:56;2.00;99.90
18218;DHT22;9234;49.344;11.120;2022-12-10T10:23:26;2.10;99.90
18218;DHT22;9234;49.344;11.120;2022-12-10T10:25:54;2.20;99.90
18218;DHT22;9234;49.344;11.120;2022-12-10T10:28:23;2.30;99.90
18218;DHT22;9234;49.344;11.120;2022-12-10T10:30:52;2.40;99.90
18218;DHT22;9234;49.344;11.120;2022-12-10T10:33:21;2.40;99.90
18218;DHT22;9234;49.344;11.120;2022-12-10T10:35:53;2.50;99.90
18218;DHT22;9234;49.344;11.120;2022-12-10T10:38:27;2.50;99.90
18218;DHT22;9234;49.344;11.120;2022-12-10T10:40:59;2.50;99.90
18218;DHT22;9234;49.344;11.120;2022-12-10T10:43:32;2.50;99.90
18218;DHT22;9234;49.344;11.120;2022-12-10T10:46:12;2.50;99.90
18218;DHT22;9234;49.344;11.120;2022-12-10T10:48:42;2.50;99.90
18218;DHT22;9234;49.344;11.120;2022-12-10T10:51:18;2.60;99.90
18218;DHT22;9234;49.344;11.120;2022-12-10T10:53:52;2.70;99.90
18218;DHT22;9234;49.344;11.120;2022-12-10T10:56:23;2.80;99.90
18218;DHT22;9234;49.344;11.120;2022-12-10T10:58:56;2.80;99.90
18218;DHT22;9234;49.344;11.120;2022-12-10T11:01:27;2.90;99.90
18218;DHT22;9234;49.344;11.120;2022-12-10T11:04:13;3.00;99.90
18218;DHT22;9234;49.344;11.120;2022-12-10T11:06:43;3.00;99.90
18218;DHT22;9234;49.344;11.120;2022-12-10T11:09:17;3.00;99.90
18218;DHT22;9234;49.344;11.120;2022-12-10T11:11:50;3.00;99.90
18218;DHT22;9234;49.344;11.120;2022-12-10T11:14:29;3.10;99.90
18218;DHT22;9234;49.344;11.120;2022-12-10T11:17:17;3.20;99.90
18218;DHT22;9234;49.344;11.120;2022-12-10T11:19:55;3.30;99.90
18218;DHT22;9234;49.344;11.120;2022-12-10T11:22:27;3.40;99.90
18218;DHT22;9234;49.344;11.120;2022-12-10T11:24:59;3.40;99.90
18218;DHT22;9234;49.344;11.120;2022-12-10T11:27:44;3.40;99.90
18218;DHT22;9234;49.344;11.120;2022-12-10T11:30:20;3.40;99.90
18218;DHT22;9234;49.344;11.120;2022-12-10T11:33:01;3.40;99.90
18218;DHT22;9234;49.344;11.120;2022-12-10T11:35:45;3.40;99.90
18218;DHT22;9234;49.344;11.120;2022-12-10T11:38:23;3.40;99.90
18218;DHT22;9234;49.344;11.120;2022-12-10T11:41:03;3.40;99.90
18218;DHT22;9234;49.344;11.120;2022-12-10T11:43:47;3.50;99.90
18218;DHT22;9234;49.344;11.120;2022-12-10T11:46:55;3.60;99.90
18218;DHT22;9234;49.344;11.120;2022-12-10T11:49:37;3.70;99.90
18218;DHT22;9234;49.344;11.120;2022-12-10T11:52:17;3.70;99.90
18218;DHT22;9234;49.344;11.120;2022-12-10T11:55:10;3.70;99.90
18218;DHT22;9234;49.344;11.120;2022-12-10T11:57:52;3.70;99.90
18218;DHT22;9234;49.344;11.120;2022-12-10T12:00:38;3.80;99.90
18218;DHT22;9234;49.344;11.120;2022-12-10T12:03:27;3.80;99.90
18218;DHT22;9234;49.344;11.120;2022-12-10T12:06:17;3.80;99.90
18218;DHT22;9234;49.344;11.120;2022-12-10T12:08:58;3.90;99.90
18218;DHT22;9234;49.344;11.120;2022-12-10T12:11:55;3.90;99.90
18218;DHT22;9234;49.344;11.120;2022-12-10T12:14:39;3.90;99.90
18218;DHT22;9234;49.344;11.120;2022-12-10T12:17:18;4.00;99.90
18218;DHT22;9234;49.344;11.120;2022-12-10T12:19:52;4.10;99.90
18218;DHT22;9234;49.344;11.120;2022-12-10T12:22:24;4.10;99.90
18218;DHT22;9234;49.344;11.120;2022-12-10T12:24:57;4.00;99.90
18218;DHT22;9234;49.344;11.120;2022-12-10T12:27:33;4.00;99.90
18218;DHT22;9234;49.344;11.120;2022-12-10T12:30:12;3.90;99.90
18218;DHT22;9234;49.344;11.120;2022-12-10T12:32:53;3.90;99.90
18218;DHT22;9234;49.344;11.120;2022-12-10T12:35:32;3.90;99.90
18218;DHT22;9234;49.344;11.120;2022-12-10T12:38:28;3.90;99.90
18218;DHT22;9234;49.344;11.120;2022-12-10T12:41:02;3.90;99.90
18218;DHT22;9234;49.344;11.120;2022-12-10T12:43:40;3.90;99.90
18218;DHT22;9234;49.344;11.120;2022-12-10T12:46:23;3.80;99.90
18218;DHT22;9234;49.344;11.120;2022-12-10T12:49:02;3.80;99.90
18218;DHT22;9234;49.344;11.120;2022-12-10T12:51:40;3.80;99.90
18218;DHT22;9234;49.344;11.120;2022-12-10T12:54:13;3.90;99.90
18218;DHT22;9234;49.344;11.120;2022-12-10T12:56:58;4.00;99.90
18218;DHT22;9234;49.344;11.120;2022-12-10T12:59:36;4.10;99.90
18218;DHT22;9234;49.344;11.120;2022-12-10T13:02:26;4.20;99.90
18218;DHT22;9234;49.344;11.120;2022-12-10T13:05:13;4.30;99.90
18218;DHT22;9234;49.344;11.120;2022-12-10T13:07:44;4.20;99.90
18218;DHT22;9234;49.344;11.120;2022-12-10T13:10:24;4.10;99.90
18218;DHT22;9234;49.344;11.120;2022-12-10T13:13:15;4.00;99.90
18218;DHT22;9234;49.344;11.120;2022-12-10T13:15:51;3.90;99.90
18218;DHT22;9234;49.344;11.120;2022-12-10T13:18:35;3.80;99.90
18218;DHT22;9234;49.344;11.120;2022-12-10T13:21:30;3.60;99.90
18218;DHT22;9234;49.344;11.120;2022-12-10T13:24:10;3.60;99.90
18218;DHT22;9234;49.344;11.120;2022-12-10T13:29:44;3.50;99.90
18218;DHT22;9234;49.344;11.120;2022-12-10T13:32:20;3.40;99.90
18218;DHT22;9234;49.344;11.120;2022-12-10T13:35:18;3.30;99.90
18218;DHT22;9234;49.344;11.120;2022-12-10T13:37:56;3.30;99.90
18218;DHT22;9234;49.344;11.120;2022-12-10T13:40:38;3.20;99.90
18218;DHT22;9234;49.344;11.120;2022-12-10T13:43:35;3.20;99.90
18218;DHT22;9234;49.344;11.120;2022-12-10T13:46:26;3.20;99.90
18218;DHT22;9234;49.344;11.120;2022-12-10T13:48:59;3.20;99.90
18218;DHT22;9234;49.344;11.120;2022-12-10T13:51:39;3.10;99.90
18218;DHT22;9234;49.344;11.120;2022-12-10T13:54:55;3.10;99.90
18218;DHT22;9234;49.344;11.120;2022-12-10T13:58:18;3.00;99.90
18218;DHT22;9234;49.344;11.120;2022-12-10T14:01:03;3.00;99.90
18218;DHT22;9234;49.344;11.120;2022-12-10T14:03:55;2.90;99.90
18218;DHT22;9234;49.344;11.120;2022-12-10T14:06:34;2.90;99.90
18218;DHT22;9234;49.344;11.120;2022-12-10T14:09:11;2.90;99.90
18218;DHT22;9234;49.344;11.120;2022-12-10T14:11:48;2.80;99.90
18218;DHT22;9234;49.344;11.120;2022-12-10T14:14:24;2.80;99.90
18218;DHT22;9234;49.344;11.120;2022-12-10T14:16:59;2.80;99.90
18218;DHT22;9234;49.344;11.120;2022-12-10T14:19:33;2.80;99.90
18218;DHT22;9234;49.344;11.120;2022-12-10T14:22:06;2.80;99.90
18218;DHT22;9234;49.344;11.120;2022-12-10T14:24:37;2.80;99.90
18218;DHT22;9234;49.344;11.120;2022-12-10T14:27:13;2.70;99.90
18218;DHT22;9234;49.344;11.120;2022-12-10T14:29:45;2.70;99.90
18218;DHT22;9234;49.344;11.120;2022-12-10T14:32:16;2.70;99.90
18218;DHT22;9234;49.344;11.120;2022-12-10T14:34:50;2.70;99.90
18218;DHT22;9234;49.344;11.120;2022-12-10T14:37:26;2.70;99.90
18218;DHT22;9234;49.344;11.120;2022-12-10T14:39:57;2.60;99.90
18218;DHT22;9234;49.344;11.120;2022-12-10T14:42:26;2.60;99.90
18218;DHT22;9234;49.344;11.120;2022-12-10T14:44:58;2.50;99.90
18218;DHT22;9234;49.344;11.120;2022-12-10T14:47:33;2.50;99.90
18218;DHT22;9234;49.344;11.120;2022-12-10T14:50:13;2.50;99.90
18218;DHT22;9234;49.344;11.120;2022-12-10T14:52:50;2.50;99.90
18218;DHT22;9234;49.344;11.120;2022-12-10T14:55:21;2.40;99.90
18218;DHT22;9234;49.344;11.120;2022-12-10T14:57:54;2.40;99.90
18218;DHT22;9234;49.344;11.120;2022-12-10T15:00:27;2.40;99.90
18218;DHT22;9234;49.344;11.120;2022-12-10T15:02:58;2.40;99.90
18218;DHT22;9234;49.344;11.120;2022-12-10T15:05:29;2.30;99.90
18218;DHT22;9234;49.344;11.120;2022-12-10T15:08:22;2.30;99.90
18218;DHT22;9234;49.344;11.120;2022-12-10T15:10:55;2.30;99.90
18218;DHT22;9234;49.344;11.120;2022-12-10T15:13:32;2.20;99.90
18218;DHT22;9234;49.344;11.120;2022-12-10T15:16:05;2.20;99.90
18218;DHT22;9234;49.344;11.120;2022-12-10T15:18:43;2.10;99.90
18218;DHT22;9234;49.344;11.120;2022-12-10T15:21:15;2.20;99.90
18218;DHT22;9234;49.344;11.120;2022-12-10T15:23:50;2.10;99.90
18218;DHT22;9234;49.344;11.120;2022-12-10T15:26:42;2.20;99.90
18218;DHT22;9234;49.344;11.120;2022-12-10T15:29:30;2.10;99.90
18218;DHT22;9234;49.344;11.120;2022-12-10T15:32:10;2.10;99.90
18218;DHT22;9234;49.344;11.120;2022-12-10T15:34:44;2.10;99.90
18218;DHT22;9234;49.344;11.120;2022-12-10T15:37:18;2.20;99.90
18218;DHT22;9234;49.344;11.120;2022-12-10T15:39:52;2.10;99.90
18218;DHT22;9234;49.344;11.120;2022-12-10T15:42:37;2.10;99.90
18218;DHT22;9234;49.344;11.120;2022-12-10T15:45:18;2.10;99.90
18218;DHT22;9234;49.344;11.120;2022-12-10T15:47:49;2.10;99.90
18218;DHT22;9234;49.344;11.120;2022-12-10T15:50:18;2.10;99.90
18218;DHT22;9234;49.344;11.120;2022-12-10T15:52:46;2.10;99.90
18218;DHT22;9234;49.344;11.120;2022-12-10T15:55:16;2.10;99.90
18218;DHT22;9234;49.344;11.120;2022-12-10T15:57:44;2.10;99.90
18218;DHT22;9234;49.344;11.120;2022-12-10T16:00:18;2.10;99.90
18218;DHT22;9234;49.344;11.120;2022-12-10T16:02:51;2.10;99.90
18218;DHT22;9234;49.344;11.120;2022-12-10T16:05:23;2.10;99.90
18218;DHT22;9234;49.344;11.120;2022-12-10T16:07:54;2.10;99.90
18218;DHT22;9234;49.344;11.120;2022-12-10T16:10:26;2.10;99.90
18218;DHT22;9234;49.344;11.120;2022-12-10T16:12:59;2.10;99.90
18218;DHT22;9234;49.344;11.120;2022-12-10T16:15:31;2.10;99.90
18218;DHT22;9234;49.344;11.120;2022-12-10T16:18:02;2.00;99.90
18218;DHT22;9234;49.344;11.120;2022-12-10T16:20:32;2.00;99.90
18218;DHT22;9234;49.344;11.120;2022-12-10T16:23:00;2.00;99.90
18218;DHT22;9234;49.344;11.120;2022-12-10T16:25:31;2.00;99.90
18218;DHT22;9234;49.344;11.120;2022-12-10T16:28:01;2.00;99.90
18218;DHT22;9234;49.344;11.120;2022-12-10T16:30:33;2.00;99.90
18218;DHT22;9234;49.344;11.120;2022-12-10T16:33:13;2.00;99.90